Weather observations for the past three days for
Anchorage, Ted Stevens Anchorage International Airport
Metric (Imperial)
Date Time (akdt) Wind (kph) Vis. (km) Weather Sky Cond. Temperature (ºC) Relative Humidity Wind Chill (°C) Heat Index (°C) Pressure Precipitation (cm)
Air Dwpt 6 hour altimeter (cm) sea level (mb) 1 hr 3 hr 6 hr
Max. Min.
02 08:53 SE 24 G 37 16.09 Overcast OVC050 4.4 0.6 77% 0 75.97 1013.0 0.05
02 07:53 S 19 14.48 Light Rain BKN027 OVC036 3.9 1.1 82% 0 75.92 1012.5 0.1
02 06:53 S 11 4.83 Light Rain OVC024 3.3 0.6 83% 1 75.9 1012.0 0.08 0.08
02 05:53 SW 22 G 41 16.09 Light Rain OVC042 3.9 -0.6 73% -0 75.82 1010.9
02 04:53 SE 20 G 35 16.09 Overcast BKN055 OVC070 4.4 -1.1 68% 1 75.69 1009.3
02 03:53 S 24 G 46 16.09 Overcast SCT050 OVC065 4.4 -1.7 5 3.3 65% 0 75.64 1008.7
02 02:53 SE 22 G 44 16.09 Overcast BKN042 OVC065 5 -1.7 62% 1 75.59 1008.0
02 01:53 SE 20 G 48 16.09 Overcast OVC034 4.4 -1.7 65% 1 75.54 1007.2
02 00:53 SE 37 G 61 16.09 Overcast and Breezy BKN045 OVC055 4.4 -1.7 65% -1 75.46 1006.1
01 23:53 SE 43 G 63 16.09 Overcast and Windy OVC060 4.4 -1.7 65% -1 75.34 1004.5
01 22:53 SE 35 G 61 16.09 Light Rain and Breezy FEW048 OVC060 3.9 -1.1 70% -1 75.26 1003.6
01 21:53 SE 22 G 37 16.09 Overcast FEW004 OVC055 3.3 -0.6 4.4 1.7 76% -1 75.23 1003.1
01 20:53 N 20 16.09 Light Rain FEW002 FEW020 OVC050 2.2 0.6 89% -2 75.18 1002.6
01 19:53 NW 19 G 26 16.09 Light Rain BKN044 OVC050 2.8 0 82% -1 75.16 1002.1
01 18:53 W 22 16.09 Light Rain FEW007 FEW050 OVC060 2.2 1.1 93% -2 75.11 1001.4
01 17:53 N 19 G 35 16.09 Light Rain FEW020 BKN055 OVC075 2.2 1.7 97% -2 75.13 1001.8
01 16:53 NW 20 G 31 16.09 Light Rain SCT060 OVC075 3.9 0 76% 0 75.13 1001.9
01 15:53 W 15 G 37 16.09 Light Rain BKN070 OVC080 3.9 0.6 4.4 2.8 79% 1 75.21 1003.0
01 14:53 N 13 G 46 16.09 Light Rain FEW050 BKN060 OVC080 3.9 0.6 79% 1 75.21 1002.9
01 13:53 NW 20 16.09 Overcast FEW065 OVC100 3.9 0.6 79% 0 75.26 1003.4
01 12:53 W 26 G 33 16.09 Overcast FEW060 BKN090 OVC110 4.4 -0.6 70% 0 75.36 1004.8
01 11:53 NW 11 16.09 Overcast SCT065 SCT085 OVC100 3.9 -0.6 73% 1 75.34 1004.7
01 10:53 N 17 16.09 Overcast SCT035 BKN070 OVC100 3.9 -0.6 73% 0 75.34 1004.7
01 09:53 NW 19 16.09 Overcast SCT050 BKN070 OVC120 2.8 0.6 3.3 1.7 86% -1 75.36 1005.0
01 08:53 W 22 16.09 Overcast FEW070 BKN090 OVC120 3.3 0 79% -1 75.46 1006.1
01 07:53 NW 19 16.09 Overcast FEW065 BKN090 BKN120 OVC180 2.8 0 82% -1 75.49 1006.6
01 06:53 NW 17 16.09 Overcast FEW065 SCT090 BKN130 OVC150 2.8 0.6 86% -1 75.57 1007.6
01 05:53 W 9 16.09 Overcast OVC110 1.7 0.6 93% -1 75.67 1009.0
01 04:53 NW 11 16.09 Fair CLR 1.7 0.6 93% -1 75.69 1009.3
01 03:53 NW 19 16.09 Overcast OVC110 1.7 0.6 6.1 1.7 93% -2 75.72 1009.5
01 02:53 NW 15 16.09 Mostly Cloudy BKN120 1.7 1.1 96% -2 75.77 1010.2
01 01:53 NW 7 16.09 Overcast OVC100 2.2 1.1 93% 0 75.82 1011.1
01 00:53 Calm 16.09 Mostly Cloudy BKN120 3.3 0 79% 75.87 1011.6
30 23:53 SE 17 G 35 16.09 Mostly Cloudy BKN110 5.6 -1.7 60% 3 75.9 1011.9
30 22:53 SE 24 G 46 16.09 Overcast FEW060 SCT110 OVC130 5 -0.6 67% 1 75.9 1012.0
30 21:53 NW 17 16.09 Overcast BKN095 OVC110 4.4 0 7.2 4.4 73% 1 75.92 1012.5
30 20:53 E 11 16.09 Overcast FEW090 BKN110 OVC140 5.6 -1.1 62% 3 75.95 1012.6
30 19:53 SE 37 G 61 16.09 Overcast and Breezy FEW070 BKN090 OVC100 5 -0.6 67% -0 75.95 1012.8
30 18:53 S 20 G 39 16.09 Overcast BKN075 OVC080 5.6 -0.6 65% 2 76 1013.4
30 17:53 SE 19 G 43 16.09 Overcast BKN075 OVC085 7.2 -2.8 49% 4 76.02 1013.8
30 16:53 SE 30 G 50 16.09 Overcast BKN055 OVC070 7.2 -2.8 49% 3 76.07 1014.2
30 15:53 SE 24 G 48 16.09 Overcast OVC050 6.1 -1.7 7.2 5.6 58% 2 76.1 1014.6
30 14:53 SE 30 G 63 16.09 Overcast FEW020 BKN050 OVC060 7.2 -1.7 54% 3 76.1 1014.8
30 13:53 SE 22 G 39 16.09 Overcast BKN060 OVC075 6.7 -1.7 55% 3 76.1 1014.7
30 12:53 SE 24 G 46 16.09 Overcast BKN060 OVC085 6.7 -1.7 55% 3 76.12 1015.0
30 11:53 SE 31 G 50 16.09 Overcast FEW070 OVC085 7.2 -1.7 54% 3 76.12 1014.9
30 10:53 SE 20 G 48 16.09 Overcast BKN065 OVC080 6.7 -2.8 51% 3 76.12 1015.0
30 09:53 SE 22 G 41 16.09 Overcast BKN070 OVC085 5.6 -3.3 6.1 0.6 53% 2 76.12 1015.1
30 08:53 E 7 16.09 Overcast BKN095 OVC120 2.8 -1.1 76% 1 76.15 1015.3
30 07:53 Calm 16.09 Overcast BKN095 OVC120 2.2 -2.8 70% 76.15 1015.3
30 06:53 S 7 16.09 Mostly Cloudy BKN110 0.6 -2.8 78% -1 76.15 1015.4
30 05:53 E 7 16.09 Overcast OVC110 1.1 -2.8 76% -1 76.17 1015.6
30 04:53 NW 6 16.09 Mostly Cloudy BKN110 1.1 -2.2 79% 76.17 1015.7
30 03:53 S 6 16.09 Fair CLR 1.1 -2.8 3.9 -0.6 76% 76.17 1015.7
30 02:53 S 7 16.09 Fair CLR 0 -3.3 79% -2 76.17 1015.8
30 01:53 SE 6 16.09 Fair CLR 0 -2.2 85% 76.17 1015.7
30 00:53 Calm 14.48 Fair CLR 1.1 -2.2 79% 76.15 1015.6
29 23:53 S 9 16.09 Fair CLR 0 -3.3 79% -3 76.15 1015.3
29 22:53 SW 11 16.09 A Few Clouds FEW085 2.8 -3.9 62% 0 76.12 1015.2
29 21:53 W 9 16.09 A Few Clouds FEW060 3.9 -3.3 10 3.9 60% 2 76.1 1014.6
29 20:53 SW 11 16.09 A Few Clouds FEW030 5.6 -2.2 58% 3 76.07 1014.4
29 19:53 SW 17 G 35 16.09 A Few Clouds FEW030 FEW100 6.7 -2.2 53% 4 76.07 1014.5
29 18:53 NW 9 16.09 Partly Cloudy SCT110 7.2 -2.8 49% 6 76.1 1014.6
29 17:53 SW 17 16.09 Overcast OVC110 8.3 -1.7 50% 6 76.12 1015.1
29 16:53 N 9 16.09 Partly Cloudy SCT110 8.3 -3.3 44% 7 76.15 1015.3
29 15:53 S 15 16.09 Overcast BKN070 OVC085 8.9 -3.3 10 5.6 42% 7 76.17 1015.7
29 14:53 S 15 G 31 16.09 Mostly Cloudy SCT050 BKN080 8.3 -2.8 46% 6 76.2 1016.0
29 13:53 S 17 G 31 16.09 Mostly Cloudy SCT040 BKN060 8.9 -2.8 44% 7 76.23 1016.6
29 12:53 SE 22 G 35 16.09 Mostly Cloudy SCT040 BKN060 8.3 -2.8 46% 5 76.3 1017.4
29 11:53 SE 26 G 37 16.09 Partly Cloudy FEW040 SCT060 7.8 -1.7 51% 4 76.33 1017.8
29 10:53 Vrbl 6 16.09 Partly Cloudy FEW040 SCT060 7.2 -0.6 58% 76.38 1018.3
29 09:53 Vrbl 6 16.09 Fair CLR 5.6 -0.6 6.1 1.1 65% 76.4 1018.8
Date Time (akdt) Wind (kph) Vis. (km) Weather Sky Cond. Air Dwpt Max. Min. Relative Humidity Wind Chill (°C) Heat Index (°C) altimeter (cm) sea level (mb) 1 hr 3 hr 6 hr
6 hour
Temperature (ºC) Pressure Precipitation (cm)